sensor_id;sensor_type;location;lat;lon;timestamp;P1;durP1;ratioP1;P2;durP2;ratioP2
78838;SDS011;68405;47.190;27.558;2023-06-26T00:00:30;5.80;;;4.60;;
78838;SDS011;68405;47.190;27.558;2023-06-26T00:03:23;8.50;;;6.20;;
78838;SDS011;68405;47.190;27.558;2023-06-26T00:05:54;8.50;;;6.00;;
78838;SDS011;68405;47.190;27.558;2023-06-26T00:08:28;6.50;;;5.80;;
78838;SDS011;68405;47.190;27.558;2023-06-26T00:11:03;7.80;;;5.70;;
78838;SDS011;68405;47.190;27.558;2023-06-26T00:13:34;7.60;;;6.00;;
78838;SDS011;68405;47.190;27.558;2023-06-26T00:16:06;7.30;;;6.00;;
78838;SDS011;68405;47.190;27.558;2023-06-26T00:18:38;7.30;;;6.00;;
78838;SDS011;68405;47.190;27.558;2023-06-26T00:21:09;9.10;;;6.00;;
78838;SDS011;68405;47.190;27.558;2023-06-26T00:23:41;8.80;;;6.30;;
78838;SDS011;68405;47.190;27.558;2023-06-26T00:26:13;9.50;;;6.50;;
78838;SDS011;68405;47.190;27.558;2023-06-26T00:28:44;8.50;;;6.40;;
78838;SDS011;68405;47.190;27.558;2023-06-26T00:31:16;7.10;;;5.90;;
78838;SDS011;68405;47.190;27.558;2023-06-26T00:33:48;7.00;;;6.00;;
78838;SDS011;68405;47.190;27.558;2023-06-26T00:36:19;8.10;;;6.20;;
78838;SDS011;68405;47.190;27.558;2023-06-26T00:38:52;8.30;;;6.80;;
78838;SDS011;68405;47.190;27.558;2023-06-26T00:41:24;9.60;;;5.80;;
78838;SDS011;68405;47.190;27.558;2023-06-26T00:43:55;8.50;;;6.40;;
78838;SDS011;68405;47.190;27.558;2023-06-26T00:46:27;7.20;;;5.90;;
78838;SDS011;68405;47.190;27.558;2023-06-26T00:48:59;10.10;;;5.90;;
78838;SDS011;68405;47.190;27.558;2023-06-26T00:51:32;10.50;;;6.20;;
78838;SDS011;68405;47.190;27.558;2023-06-26T00:54:03;7.80;;;6.30;;
78838;SDS011;68405;47.190;27.558;2023-06-26T00:56:36;9.80;;;6.60;;
78838;SDS011;68405;47.190;27.558;2023-06-26T00:59:08;7.30;;;6.10;;
78838;SDS011;68405;47.190;27.558;2023-06-26T01:01:40;8.90;;;7.40;;
78838;SDS011;68405;47.190;27.558;2023-06-26T01:04:12;8.10;;;6.60;;
78838;SDS011;68405;47.190;27.558;2023-06-26T01:06:47;9.00;;;6.30;;
78838;SDS011;68405;47.190;27.558;2023-06-26T01:09:20;7.80;;;6.80;;
78838;SDS011;68405;47.190;27.558;2023-06-26T01:11:53;10.00;;;6.60;;
78838;SDS011;68405;47.190;27.558;2023-06-26T01:14:24;9.20;;;7.00;;
78838;SDS011;68405;47.190;27.558;2023-06-26T01:16:56;8.90;;;6.60;;
78838;SDS011;68405;47.190;27.558;2023-06-26T01:19:28;8.30;;;6.90;;
78838;SDS011;68405;47.190;27.558;2023-06-26T01:22:02;8.80;;;6.80;;
78838;SDS011;68405;47.190;27.558;2023-06-26T01:24:48;9.60;;;7.10;;
78838;SDS011;68405;47.190;27.558;2023-06-26T01:27:40;9.80;;;6.60;;
78838;SDS011;68405;47.190;27.558;2023-06-26T01:30:13;8.80;;;7.50;;
78838;SDS011;68405;47.190;27.558;2023-06-26T01:32:45;10.00;;;7.10;;
78838;SDS011;68405;47.190;27.558;2023-06-26T01:35:18;8.70;;;7.70;;
78838;SDS011;68405;47.190;27.558;2023-06-26T01:37:51;9.50;;;8.20;;
78838;SDS011;68405;47.190;27.558;2023-06-26T01:40:22;9.80;;;7.50;;
78838;SDS011;68405;47.190;27.558;2023-06-26T01:42:54;11.50;;;8.10;;
78838;SDS011;68405;47.190;27.558;2023-06-26T01:45:27;9.70;;;7.60;;
78838;SDS011;68405;47.190;27.558;2023-06-26T01:48:01;12.40;;;8.30;;
78838;SDS011;68405;47.190;27.558;2023-06-26T01:50:41;12.50;;;8.40;;
78838;SDS011;68405;47.190;27.558;2023-06-26T01:53:16;10.90;;;8.00;;
78838;SDS011;68405;47.190;27.558;2023-06-26T01:55:55;11.40;;;8.90;;
78838;SDS011;68405;47.190;27.558;2023-06-26T01:58:36;10.70;;;8.10;;
78838;SDS011;68405;47.190;27.558;2023-06-26T02:47:26;14.10;;;10.10;;
78838;SDS011;68405;47.190;27.558;2023-06-26T02:49:55;13.00;;;9.70;;
78838;SDS011;68405;47.190;27.558;2023-06-26T02:52:24;12.80;;;8.90;;
78838;SDS011;68405;47.190;27.558;2023-06-26T02:54:53;13.90;;;9.20;;
78838;SDS011;68405;47.190;27.558;2023-06-26T02:57:22;14.90;;;9.70;;
78838;SDS011;68405;47.190;27.558;2023-06-26T02:59:51;12.30;;;9.50;;
78838;SDS011;68405;47.190;27.558;2023-06-26T03:02:20;13.80;;;9.60;;
78838;SDS011;68405;47.190;27.558;2023-06-26T03:04:49;12.10;;;8.50;;
78838;SDS011;68405;47.190;27.558;2023-06-26T03:07:19;12.90;;;9.50;;
78838;SDS011;68405;47.190;27.558;2023-06-26T03:09:48;13.70;;;10.30;;
78838;SDS011;68405;47.190;27.558;2023-06-26T03:12:17;12.70;;;9.90;;
78838;SDS011;68405;47.190;27.558;2023-06-26T03:14:46;10.60;;;8.00;;
78838;SDS011;68405;47.190;27.558;2023-06-26T03:17:15;13.80;;;9.00;;
78838;SDS011;68405;47.190;27.558;2023-06-26T03:19:44;13.90;;;10.20;;
78838;SDS011;68405;47.190;27.558;2023-06-26T03:22:13;11.80;;;9.40;;
78838;SDS011;68405;47.190;27.558;2023-06-26T03:24:42;12.20;;;8.20;;
78838;SDS011;68405;47.190;27.558;2023-06-26T03:27:12;10.20;;;8.20;;
78838;SDS011;68405;47.190;27.558;2023-06-26T03:29:41;10.60;;;8.30;;
78838;SDS011;68405;47.190;27.558;2023-06-26T03:32:11;13.50;;;8.60;;
78838;SDS011;68405;47.190;27.558;2023-06-26T03:34:40;11.40;;;8.70;;
78838;SDS011;68405;47.190;27.558;2023-06-26T03:37:09;10.20;;;8.10;;
78838;SDS011;68405;47.190;27.558;2023-06-26T03:39:38;10.40;;;8.20;;
78838;SDS011;68405;47.190;27.558;2023-06-26T03:42:07;10.60;;;7.60;;
78838;SDS011;68405;47.190;27.558;2023-06-26T03:44:36;11.80;;;8.60;;
78838;SDS011;68405;47.190;27.558;2023-06-26T03:47:05;11.40;;;8.00;;
78838;SDS011;68405;47.190;27.558;2023-06-26T03:49:34;11.20;;;8.30;;
78838;SDS011;68405;47.190;27.558;2023-06-26T03:52:03;10.20;;;7.70;;
78838;SDS011;68405;47.190;27.558;2023-06-26T03:54:34;8.50;;;7.50;;
78838;SDS011;68405;47.190;27.558;2023-06-26T03:57:03;9.50;;;7.30;;
78838;SDS011;68405;47.190;27.558;2023-06-26T03:59:32;9.00;;;7.90;;
78838;SDS011;68405;47.190;27.558;2023-06-26T04:02:01;8.00;;;7.00;;
78838;SDS011;68405;47.190;27.558;2023-06-26T04:04:30;7.30;;;6.20;;
78838;SDS011;68405;47.190;27.558;2023-06-26T04:07:00;7.80;;;6.00;;
78838;SDS011;68405;47.190;27.558;2023-06-26T04:09:29;7.80;;;5.70;;
78838;SDS011;68405;47.190;27.558;2023-06-26T04:11:58;8.40;;;6.30;;
78838;SDS011;68405;47.190;27.558;2023-06-26T04:14:28;7.90;;;5.80;;
78838;SDS011;68405;47.190;27.558;2023-06-26T04:16:58;6.50;;;5.50;;
78838;SDS011;68405;47.190;27.558;2023-06-26T04:19:29;7.80;;;6.20;;
78838;SDS011;68405;47.190;27.558;2023-06-26T04:21:58;7.30;;;6.00;;
78838;SDS011;68405;47.190;27.558;2023-06-26T04:24:27;6.20;;;5.40;;
78838;SDS011;68405;47.190;27.558;2023-06-26T04:26:57;6.40;;;5.10;;
78838;SDS011;68405;47.190;27.558;2023-06-26T04:29:26;6.30;;;5.60;;
78838;SDS011;68405;47.190;27.558;2023-06-26T04:31:55;6.90;;;6.00;;
78838;SDS011;68405;47.190;27.558;2023-06-26T04:34:25;6.70;;;6.00;;
78838;SDS011;68405;47.190;27.558;2023-06-26T04:36:55;7.40;;;5.20;;
78838;SDS011;68405;47.190;27.558;2023-06-26T04:39:24;6.10;;;5.30;;
78838;SDS011;68405;47.190;27.558;2023-06-26T04:41:53;6.40;;;5.20;;
78838;SDS011;68405;47.190;27.558;2023-06-26T04:44:23;8.00;;;5.60;;
78838;SDS011;68405;47.190;27.558;2023-06-26T04:46:52;6.30;;;5.70;;
78838;SDS011;68405;47.190;27.558;2023-06-26T04:49:22;7.30;;;5.40;;
78838;SDS011;68405;47.190;27.558;2023-06-26T04:51:51;7.30;;;5.20;;
78838;SDS011;68405;47.190;27.558;2023-06-26T04:54:20;6.00;;;5.20;;
78838;SDS011;68405;47.190;27.558;2023-06-26T04:56:50;6.50;;;5.60;;
78838;SDS011;68405;47.190;27.558;2023-06-26T04:59:19;6.10;;;4.90;;
78838;SDS011;68405;47.190;27.558;2023-06-26T05:01:48;5.20;;;4.70;;
78838;SDS011;68405;47.190;27.558;2023-06-26T05:04:17;7.80;;;5.50;;
78838;SDS011;68405;47.190;27.558;2023-06-26T05:06:46;5.90;;;5.20;;
78838;SDS011;68405;47.190;27.558;2023-06-26T05:09:15;5.60;;;5.10;;
78838;SDS011;68405;47.190;27.558;2023-06-26T05:11:44;6.50;;;5.00;;
78838;SDS011;68405;47.190;27.558;2023-06-26T05:14:13;5.00;;;4.40;;
78838;SDS011;68405;47.190;27.558;2023-06-26T05:16:42;5.30;;;4.80;;
78838;SDS011;68405;47.190;27.558;2023-06-26T05:19:11;5.40;;;4.90;;
78838;SDS011;68405;47.190;27.558;2023-06-26T05:21:40;5.60;;;5.10;;
78838;SDS011;68405;47.190;27.558;2023-06-26T05:24:09;4.90;;;4.50;;
78838;SDS011;68405;47.190;27.558;2023-06-26T05:26:43;5.30;;;4.90;;
78838;SDS011;68405;47.190;27.558;2023-06-26T05:29:14;5.50;;;4.90;;
78838;SDS011;68405;47.190;27.558;2023-06-26T05:31:43;5.40;;;4.90;;
78838;SDS011;68405;47.190;27.558;2023-06-26T05:34:15;5.60;;;5.10;;
78838;SDS011;68405;47.190;27.558;2023-06-26T05:36:44;6.50;;;5.10;;
78838;SDS011;68405;47.190;27.558;2023-06-26T05:39:18;7.00;;;4.80;;
78838;SDS011;68405;47.190;27.558;2023-06-26T05:41:48;5.30;;;4.90;;
78838;SDS011;68405;47.190;27.558;2023-06-26T05:44:18;5.90;;;4.80;;
78838;SDS011;68405;47.190;27.558;2023-06-26T05:46:47;5.70;;;5.20;;
78838;SDS011;68405;47.190;27.558;2023-06-26T05:49:16;7.90;;;5.20;;
78838;SDS011;68405;47.190;27.558;2023-06-26T05:51:45;5.30;;;4.90;;
78838;SDS011;68405;47.190;27.558;2023-06-26T05:54:16;5.80;;;5.00;;
78838;SDS011;68405;47.190;27.558;2023-06-26T05:56:46;5.80;;;5.20;;
78838;SDS011;68405;47.190;27.558;2023-06-26T05:59:17;5.60;;;5.00;;
78838;SDS011;68405;47.190;27.558;2023-06-26T06:01:47;10.10;;;5.30;;
78838;SDS011;68405;47.190;27.558;2023-06-26T06:04:16;5.50;;;4.90;;
78838;SDS011;68405;47.190;27.558;2023-06-26T06:06:46;6.50;;;5.50;;
78838;SDS011;68405;47.190;27.558;2023-06-26T06:09:15;6.40;;;5.70;;
78838;SDS011;68405;47.190;27.558;2023-06-26T06:11:44;10.20;;;5.10;;
78838;SDS011;68405;47.190;27.558;2023-06-26T06:14:14;7.40;;;5.40;;
78838;SDS011;68405;47.190;27.558;2023-06-26T06:16:43;7.10;;;6.10;;
78838;SDS011;68405;47.190;27.558;2023-06-26T06:19:12;7.30;;;5.10;;
78838;SDS011;68405;47.190;27.558;2023-06-26T06:21:41;7.00;;;5.30;;
78838;SDS011;68405;47.190;27.558;2023-06-26T06:24:11;9.00;;;5.80;;
78838;SDS011;68405;47.190;27.558;2023-06-26T06:26:40;8.50;;;6.40;;
78838;SDS011;68405;47.190;27.558;2023-06-26T06:29:09;8.90;;;5.60;;
78838;SDS011;68405;47.190;27.558;2023-06-26T06:31:38;6.00;;;5.10;;
78838;SDS011;68405;47.190;27.558;2023-06-26T06:34:07;5.80;;;5.20;;
78838;SDS011;68405;47.190;27.558;2023-06-26T06:36:36;5.50;;;4.80;;
78838;SDS011;68405;47.190;27.558;2023-06-26T06:39:05;6.80;;;5.50;;
78838;SDS011;68405;47.190;27.558;2023-06-26T06:41:35;5.90;;;5.30;;
78838;SDS011;68405;47.190;27.558;2023-06-26T06:44:04;6.70;;;5.10;;
78838;SDS011;68405;47.190;27.558;2023-06-26T06:46:33;5.50;;;5.00;;
78838;SDS011;68405;47.190;27.558;2023-06-26T06:49:02;7.60;;;5.70;;
78838;SDS011;68405;47.190;27.558;2023-06-26T06:51:31;6.70;;;4.90;;
78838;SDS011;68405;47.190;27.558;2023-06-26T06:54:00;6.50;;;5.20;;
78838;SDS011;68405;47.190;27.558;2023-06-26T06:56:29;6.70;;;4.50;;
78838;SDS011;68405;47.190;27.558;2023-06-26T06:59:01;5.80;;;5.00;;
78838;SDS011;68405;47.190;27.558;2023-06-26T07:01:30;5.90;;;4.90;;
78838;SDS011;68405;47.190;27.558;2023-06-26T07:03:59;5.90;;;4.80;;
78838;SDS011;68405;47.190;27.558;2023-06-26T07:06:30;7.70;;;5.10;;
78838;SDS011;68405;47.190;27.558;2023-06-26T07:09:00;8.10;;;5.60;;
78838;SDS011;68405;47.190;27.558;2023-06-26T07:11:29;6.20;;;5.00;;
78838;SDS011;68405;47.190;27.558;2023-06-26T07:13:58;6.70;;;5.40;;
78838;SDS011;68405;47.190;27.558;2023-06-26T07:16:28;7.40;;;4.00;;
78838;SDS011;68405;47.190;27.558;2023-06-26T07:18:57;5.50;;;4.70;;
78838;SDS011;68405;47.190;27.558;2023-06-26T07:21:26;5.40;;;4.80;;
78838;SDS011;68405;47.190;27.558;2023-06-26T07:23:55;5.60;;;4.40;;
78838;SDS011;68405;47.190;27.558;2023-06-26T07:26:24;7.30;;;4.70;;
78838;SDS011;68405;47.190;27.558;2023-06-26T07:28:54;6.80;;;4.60;;
78838;SDS011;68405;47.190;27.558;2023-06-26T07:31:24;6.00;;;5.40;;
78838;SDS011;68405;47.190;27.558;2023-06-26T07:33:53;5.60;;;5.00;;
78838;SDS011;68405;47.190;27.558;2023-06-26T07:36:22;7.20;;;5.50;;
78838;SDS011;68405;47.190;27.558;2023-06-26T07:38:50;5.90;;;5.10;;
78838;SDS011;68405;47.190;27.558;2023-06-26T07:41:20;10.30;;;5.50;;
78838;SDS011;68405;47.190;27.558;2023-06-26T07:43:49;7.10;;;5.10;;
78838;SDS011;68405;47.190;27.558;2023-06-26T07:46:18;4.70;;;4.20;;
78838;SDS011;68405;47.190;27.558;2023-06-26T07:48:47;4.10;;;3.70;;
78838;SDS011;68405;47.190;27.558;2023-06-26T07:51:16;4.60;;;4.20;;
78838;SDS011;68405;47.190;27.558;2023-06-26T07:53:45;6.20;;;4.70;;
78838;SDS011;68405;47.190;27.558;2023-06-26T07:56:15;5.40;;;4.40;;
78838;SDS011;68405;47.190;27.558;2023-06-26T07:58:44;5.40;;;4.50;;
78838;SDS011;68405;47.190;27.558;2023-06-26T08:01:13;7.70;;;4.60;;
78838;SDS011;68405;47.190;27.558;2023-06-26T08:03:42;5.10;;;4.60;;
78838;SDS011;68405;47.190;27.558;2023-06-26T08:06:12;5.40;;;4.50;;
78838;SDS011;68405;47.190;27.558;2023-06-26T08:08:41;6.90;;;4.20;;
78838;SDS011;68405;47.190;27.558;2023-06-26T08:11:11;5.00;;;3.70;;
78838;SDS011;68405;47.190;27.558;2023-06-26T08:13:40;4.70;;;4.30;;
78838;SDS011;68405;47.190;27.558;2023-06-26T08:16:08;4.40;;;4.00;;
78838;SDS011;68405;47.190;27.558;2023-06-26T08:18:38;3.90;;;3.50;;
78838;SDS011;68405;47.190;27.558;2023-06-26T08:21:07;4.70;;;3.60;;
78838;SDS011;68405;47.190;27.558;2023-06-26T08:23:36;5.50;;;3.90;;
78838;SDS011;68405;47.190;27.558;2023-06-26T08:26:05;3.90;;;3.50;;
78838;SDS011;68405;47.190;27.558;2023-06-26T08:28:34;3.50;;;3.10;;
78838;SDS011;68405;47.190;27.558;2023-06-26T08:31:03;5.00;;;3.60;;
78838;SDS011;68405;47.190;27.558;2023-06-26T08:33:32;4.10;;;3.70;;
78838;SDS011;68405;47.190;27.558;2023-06-26T08:36:02;5.40;;;3.30;;
78838;SDS011;68405;47.190;27.558;2023-06-26T08:38:32;5.20;;;3.40;;
78838;SDS011;68405;47.190;27.558;2023-06-26T08:41:01;4.00;;;3.10;;
78838;SDS011;68405;47.190;27.558;2023-06-26T08:43:31;5.00;;;3.20;;
78838;SDS011;68405;47.190;27.558;2023-06-26T08:46:00;3.50;;;3.10;;
78838;SDS011;68405;47.190;27.558;2023-06-26T08:48:31;4.20;;;3.00;;
78838;SDS011;68405;47.190;27.558;2023-06-26T08:51:05;3.60;;;2.90;;
78838;SDS011;68405;47.190;27.558;2023-06-26T08:53:39;4.10;;;2.90;;
78838;SDS011;68405;47.190;27.558;2023-06-26T08:56:14;5.60;;;3.10;;
78838;SDS011;68405;47.190;27.558;2023-06-26T08:58:45;5.20;;;3.20;;
78838;SDS011;68405;47.190;27.558;2023-06-26T09:01:18;4.60;;;3.00;;
78838;SDS011;68405;47.190;27.558;2023-06-26T09:03:48;3.60;;;3.00;;
78838;SDS011;68405;47.190;27.558;2023-06-26T09:06:18;3.40;;;3.10;;
78838;SDS011;68405;47.190;27.558;2023-06-26T09:08:47;5.10;;;3.60;;
78838;SDS011;68405;47.190;27.558;2023-06-26T09:11:16;5.10;;;2.90;;
78838;SDS011;68405;47.190;27.558;2023-06-26T09:13:46;3.10;;;2.60;;
78838;SDS011;68405;47.190;27.558;2023-06-26T09:16:15;3.20;;;2.90;;
78838;SDS011;68405;47.190;27.558;2023-06-26T09:18:45;3.60;;;2.80;;
78838;SDS011;68405;47.190;27.558;2023-06-26T09:21:15;3.20;;;2.40;;
78838;SDS011;68405;47.190;27.558;2023-06-26T09:23:44;3.60;;;2.80;;
78838;SDS011;68405;47.190;27.558;2023-06-26T09:26:14;2.80;;;2.60;;
78838;SDS011;68405;47.190;27.558;2023-06-26T09:28:44;3.50;;;2.80;;
78838;SDS011;68405;47.190;27.558;2023-06-26T09:31:13;3.20;;;2.90;;
78838;SDS011;68405;47.190;27.558;2023-06-26T09:33:43;4.50;;;2.90;;
78838;SDS011;68405;47.190;27.558;2023-06-26T09:36:20;2.60;;;2.40;;
78838;SDS011;68405;47.190;27.558;2023-06-26T09:38:50;4.80;;;3.10;;
78838;SDS011;68405;47.190;27.558;2023-06-26T09:41:20;4.30;;;2.90;;
78838;SDS011;68405;47.190;27.558;2023-06-26T09:43:50;4.10;;;2.40;;
78838;SDS011;68405;47.190;27.558;2023-06-26T09:46:24;2.70;;;2.50;;
78838;SDS011;68405;47.190;27.558;2023-06-26T09:48:59;2.70;;;2.50;;
78838;SDS011;68405;47.190;27.558;2023-06-26T09:51:32;3.70;;;2.60;;
78838;SDS011;68405;47.190;27.558;2023-06-26T09:54:02;3.10;;;2.80;;
78838;SDS011;68405;47.190;27.558;2023-06-26T09:56:32;4.30;;;2.20;;
78838;SDS011;68405;47.190;27.558;2023-06-26T09:59:02;3.70;;;2.60;;
78838;SDS011;68405;47.190;27.558;2023-06-26T10:01:33;3.20;;;2.80;;
78838;SDS011;68405;47.190;27.558;2023-06-26T10:04:07;6.80;;;3.00;;
78838;SDS011;68405;47.190;27.558;2023-06-26T10:06:38;4.90;;;3.10;;
78838;SDS011;68405;47.190;27.558;2023-06-26T10:09:11;3.80;;;2.70;;
78838;SDS011;68405;47.190;27.558;2023-06-26T10:11:51;4.30;;;3.00;;
78838;SDS011;68405;47.190;27.558;2023-06-26T10:14:24;2.80;;;2.50;;
78838;SDS011;68405;47.190;27.558;2023-06-26T10:16:56;3.10;;;2.40;;
78838;SDS011;68405;47.190;27.558;2023-06-26T10:19:28;3.90;;;2.60;;
78838;SDS011;68405;47.190;27.558;2023-06-26T10:21:58;5.30;;;2.80;;
78838;SDS011;68405;47.190;27.558;2023-06-26T10:24:31;4.50;;;2.60;;
78838;SDS011;68405;47.190;27.558;2023-06-26T10:27:03;5.10;;;2.50;;
78838;SDS011;68405;47.190;27.558;2023-06-26T10:29:39;3.20;;;2.80;;
78838;SDS011;68405;47.190;27.558;2023-06-26T10:32:11;3.00;;;2.70;;
78838;SDS011;68405;47.190;27.558;2023-06-26T10:34:41;5.00;;;2.90;;
78838;SDS011;68405;47.190;27.558;2023-06-26T10:37:11;3.50;;;2.70;;
78838;SDS011;68405;47.190;27.558;2023-06-26T10:39:47;3.70;;;2.40;;
78838;SDS011;68405;47.190;27.558;2023-06-26T10:42:17;2.60;;;2.20;;
78838;SDS011;68405;47.190;27.558;2023-06-26T10:44:48;3.90;;;2.40;;
78838;SDS011;68405;47.190;27.558;2023-06-26T10:47:31;3.10;;;2.80;;
78838;SDS011;68405;47.190;27.558;2023-06-26T10:50:22;3.70;;;2.40;;
78838;SDS011;68405;47.190;27.558;2023-06-26T10:53:09;3.40;;;2.40;;
78838;SDS011;68405;47.190;27.558;2023-06-26T10:55:48;3.00;;;2.30;;
78838;SDS011;68405;47.190;27.558;2023-06-26T10:58:31;2.60;;;2.10;;
78838;SDS011;68405;47.190;27.558;2023-06-26T11:04:03;2.40;;;2.10;;
78838;SDS011;68405;47.190;27.558;2023-06-26T11:06:34;3.60;;;2.40;;
78838;SDS011;68405;47.190;27.558;2023-06-26T11:09:10;5.30;;;2.30;;
78838;SDS011;68405;47.190;27.558;2023-06-26T11:11:57;3.60;;;2.40;;
78838;SDS011;68405;47.190;27.558;2023-06-26T11:14:32;2.90;;;2.30;;
78838;SDS011;68405;47.190;27.558;2023-06-26T11:17:05;3.20;;;2.20;;
78838;SDS011;68405;47.190;27.558;2023-06-26T11:19:37;2.50;;;2.20;;
78838;SDS011;68405;47.190;27.558;2023-06-26T11:22:14;4.20;;;2.10;;
78838;SDS011;68405;47.190;27.558;2023-06-26T11:24:44;3.10;;;2.10;;
78838;SDS011;68405;47.190;27.558;2023-06-26T11:27:14;3.20;;;2.00;;
78838;SDS011;68405;47.190;27.558;2023-06-26T11:29:48;3.40;;;2.30;;
78838;SDS011;68405;47.190;27.558;2023-06-26T11:32:17;4.60;;;2.40;;
78838;SDS011;68405;47.190;27.558;2023-06-26T11:34:47;4.80;;;2.10;;
78838;SDS011;68405;47.190;27.558;2023-06-26T11:37:17;7.30;;;2.50;;
78838;SDS011;68405;47.190;27.558;2023-06-26T11:39:47;3.10;;;2.20;;
78838;SDS011;68405;47.190;27.558;2023-06-26T11:42:17;2.60;;;2.20;;
78838;SDS011;68405;47.190;27.558;2023-06-26T11:44:47;5.00;;;2.50;;
78838;SDS011;68405;47.190;27.558;2023-06-26T11:47:16;2.70;;;1.90;;
78838;SDS011;68405;47.190;27.558;2023-06-26T11:49:47;3.60;;;2.20;;
78838;SDS011;68405;47.190;27.558;2023-06-26T11:52:17;3.80;;;2.80;;
78838;SDS011;68405;47.190;27.558;2023-06-26T11:54:46;4.50;;;2.50;;
78838;SDS011;68405;47.190;27.558;2023-06-26T11:57:16;3.10;;;1.90;;
78838;SDS011;68405;47.190;27.558;2023-06-26T11:59:46;3.80;;;2.00;;
78838;SDS011;68405;47.190;27.558;2023-06-26T12:02:18;3.30;;;2.20;;
78838;SDS011;68405;47.190;27.558;2023-06-26T12:04:48;2.80;;;2.50;;
78838;SDS011;68405;47.190;27.558;2023-06-26T12:07:17;3.60;;;2.20;;
78838;SDS011;68405;47.190;27.558;2023-06-26T12:09:47;3.50;;;1.80;;
78838;SDS011;68405;47.190;27.558;2023-06-26T12:12:17;3.20;;;2.10;;
78838;SDS011;68405;47.190;27.558;2023-06-26T12:14:47;6.20;;;2.80;;
78838;SDS011;68405;47.190;27.558;2023-06-26T12:17:16;4.10;;;2.10;;
78838;SDS011;68405;47.190;27.558;2023-06-26T12:19:49;3.50;;;2.10;;
78838;SDS011;68405;47.190;27.558;2023-06-26T12:22:19;5.00;;;2.70;;
78838;SDS011;68405;47.190;27.558;2023-06-26T12:24:48;2.30;;;2.10;;
78838;SDS011;68405;47.190;27.558;2023-06-26T12:27:18;3.30;;;1.90;;
78838;SDS011;68405;47.190;27.558;2023-06-26T12:29:50;2.80;;;2.30;;
78838;SDS011;68405;47.190;27.558;2023-06-26T12:32:20;3.20;;;2.20;;
78838;SDS011;68405;47.190;27.558;2023-06-26T12:34:51;3.70;;;1.80;;
78838;SDS011;68405;47.190;27.558;2023-06-26T12:37:21;3.70;;;2.20;;
78838;SDS011;68405;47.190;27.558;2023-06-26T12:39:50;6.90;;;2.60;;
78838;SDS011;68405;47.190;27.558;2023-06-26T12:42:21;5.20;;;2.00;;
78838;SDS011;68405;47.190;27.558;2023-06-26T12:44:51;2.90;;;1.80;;
78838;SDS011;68405;47.190;27.558;2023-06-26T12:47:24;6.40;;;2.20;;
78838;SDS011;68405;47.190;27.558;2023-06-26T12:52:24;4.30;;;2.30;;
78838;SDS011;68405;47.190;27.558;2023-06-26T12:54:54;3.40;;;1.90;;
78838;SDS011;68405;47.190;27.558;2023-06-26T12:57:24;4.00;;;2.30;;
78838;SDS011;68405;47.190;27.558;2023-06-26T12:59:53;2.80;;;2.10;;
78838;SDS011;68405;47.190;27.558;2023-06-26T13:02:22;3.90;;;2.20;;
78838;SDS011;68405;47.190;27.558;2023-06-26T13:04:51;2.60;;;2.10;;
78838;SDS011;68405;47.190;27.558;2023-06-26T13:07:21;3.10;;;2.10;;
78838;SDS011;68405;47.190;27.558;2023-06-26T13:09:52;3.40;;;2.00;;
78838;SDS011;68405;47.190;27.558;2023-06-26T13:12:22;4.30;;;2.20;;
78838;SDS011;68405;47.190;27.558;2023-06-26T13:14:51;2.60;;;1.90;;
78838;SDS011;68405;47.190;27.558;2023-06-26T13:17:20;4.40;;;1.80;;
78838;SDS011;68405;47.190;27.558;2023-06-26T13:19:49;2.20;;;1.40;;
78838;SDS011;68405;47.190;27.558;2023-06-26T13:22:18;2.30;;;1.70;;
78838;SDS011;68405;47.190;27.558;2023-06-26T13:24:48;2.70;;;1.50;;
78838;SDS011;68405;47.190;27.558;2023-06-26T13:27:17;3.30;;;1.50;;
78838;SDS011;68405;47.190;27.558;2023-06-26T13:29:47;3.10;;;1.70;;
78838;SDS011;68405;47.190;27.558;2023-06-26T13:32:15;3.40;;;1.70;;
78838;SDS011;68405;47.190;27.558;2023-06-26T13:34:44;3.30;;;1.90;;
78838;SDS011;68405;47.190;27.558;2023-06-26T13:37:15;2.10;;;1.70;;
78838;SDS011;68405;47.190;27.558;2023-06-26T13:39:44;3.40;;;1.90;;
78838;SDS011;68405;47.190;27.558;2023-06-26T13:42:17;3.40;;;1.90;;
78838;SDS011;68405;47.190;27.558;2023-06-26T13:44:46;3.80;;;1.80;;
78838;SDS011;68405;47.190;27.558;2023-06-26T13:47:16;2.70;;;1.80;;
78838;SDS011;68405;47.190;27.558;2023-06-26T13:49:45;4.50;;;1.90;;
78838;SDS011;68405;47.190;27.558;2023-06-26T13:52:14;3.80;;;2.10;;
78838;SDS011;68405;47.190;27.558;2023-06-26T13:54:43;3.30;;;2.10;;
78838;SDS011;68405;47.190;27.558;2023-06-26T13:57:12;2.70;;;2.00;;
78838;SDS011;68405;47.190;27.558;2023-06-26T13:59:41;2.60;;;1.60;;
78838;SDS011;68405;47.190;27.558;2023-06-26T14:02:10;3.10;;;1.50;;
78838;SDS011;68405;47.190;27.558;2023-06-26T14:04:39;2.50;;;1.80;;
78838;SDS011;68405;47.190;27.558;2023-06-26T14:07:08;3.00;;;1.50;;
78838;SDS011;68405;47.190;27.558;2023-06-26T14:09:40;2.30;;;1.70;;
78838;SDS011;68405;47.190;27.558;2023-06-26T14:12:10;2.30;;;1.80;;
78838;SDS011;68405;47.190;27.558;2023-06-26T14:14:39;2.80;;;1.70;;
78838;SDS011;68405;47.190;27.558;2023-06-26T14:17:08;7.00;;;1.90;;
78838;SDS011;68405;47.190;27.558;2023-06-26T14:19:43;2.40;;;1.50;;
78838;SDS011;68405;47.190;27.558;2023-06-26T14:22:12;2.80;;;1.60;;
78838;SDS011;68405;47.190;27.558;2023-06-26T14:24:41;2.60;;;1.30;;
78838;SDS011;68405;47.190;27.558;2023-06-26T14:27:11;2.60;;;1.50;;
78838;SDS011;68405;47.190;27.558;2023-06-26T14:29:40;2.60;;;1.50;;
78838;SDS011;68405;47.190;27.558;2023-06-26T14:32:09;3.30;;;1.70;;
78838;SDS011;68405;47.190;27.558;2023-06-26T14:34:38;2.80;;;1.60;;
78838;SDS011;68405;47.190;27.558;2023-06-26T14:37:08;3.10;;;1.60;;
78838;SDS011;68405;47.190;27.558;2023-06-26T14:39:37;4.90;;;2.00;;
78838;SDS011;68405;47.190;27.558;2023-06-26T14:42:06;3.60;;;1.50;;
78838;SDS011;68405;47.190;27.558;2023-06-26T14:44:35;2.70;;;1.80;;
78838;SDS011;68405;47.190;27.558;2023-06-26T14:47:05;4.50;;;1.90;;
78838;SDS011;68405;47.190;27.558;2023-06-26T14:49:37;3.50;;;1.30;;
78838;SDS011;68405;47.190;27.558;2023-06-26T14:52:07;3.60;;;1.60;;
78838;SDS011;68405;47.190;27.558;2023-06-26T14:54:36;4.30;;;1.90;;
78838;SDS011;68405;47.190;27.558;2023-06-26T14:57:06;3.60;;;2.00;;
78838;SDS011;68405;47.190;27.558;2023-06-26T14:59:35;1.90;;;1.50;;
78838;SDS011;68405;47.190;27.558;2023-06-26T15:02:05;2.50;;;1.70;;
78838;SDS011;68405;47.190;27.558;2023-06-26T15:04:34;3.60;;;1.60;;
78838;SDS011;68405;47.190;27.558;2023-06-26T15:07:04;2.20;;;1.30;;
78838;SDS011;68405;47.190;27.558;2023-06-26T15:09:33;4.80;;;1.60;;
78838;SDS011;68405;47.190;27.558;2023-06-26T15:12:03;2.20;;;1.30;;
78838;SDS011;68405;47.190;27.558;2023-06-26T15:14:33;4.30;;;1.70;;
78838;SDS011;68405;47.190;27.558;2023-06-26T15:17:02;2.10;;;1.30;;
78838;SDS011;68405;47.190;27.558;2023-06-26T15:19:32;2.90;;;1.60;;
78838;SDS011;68405;47.190;27.558;2023-06-26T15:22:01;2.50;;;1.60;;
78838;SDS011;68405;47.190;27.558;2023-06-26T15:24:31;2.60;;;1.50;;
78838;SDS011;68405;47.190;27.558;2023-06-26T15:27:00;2.50;;;1.50;;
78838;SDS011;68405;47.190;27.558;2023-06-26T15:29:29;2.40;;;1.60;;
78838;SDS011;68405;47.190;27.558;2023-06-26T15:31:58;2.20;;;1.50;;
78838;SDS011;68405;47.190;27.558;2023-06-26T15:34:27;2.90;;;1.90;;
78838;SDS011;68405;47.190;27.558;2023-06-26T15:36:56;2.50;;;1.50;;
78838;SDS011;68405;47.190;27.558;2023-06-26T15:39:25;5.40;;;2.00;;
78838;SDS011;68405;47.190;27.558;2023-06-26T15:41:55;3.00;;;1.80;;
78838;SDS011;68405;47.190;27.558;2023-06-26T15:44:24;3.00;;;1.80;;